Rosendale, Wisconsin
Current Conditions -  °F | °C
As of 2:53 PM on Saturday 25 Oct 2014 (Local Time) from KFLD Reporting Station
Clear Clear  
Wind Chill: 65°   Ceiling: Unl
Heat Index: 65°   Visibility: 10mi
Dew Point: 29°   Wind: 22mph
Humidity: 26%   Direction: 300°WNW
Pressure: 29.88"   Gusts: 32mph
Location:  43.81°N, 88.67°W
Report Text: KFLD 251953Z AUTO 30019G28KT 10SM CLR 18/M02 A2988 RMK AO2 PK WND 31028/1944 SLP117 T01831017
Loading
Personal Weather Stations






























Interactive Weather Map
Tropical Storm Tracking
New forecast layout! Learn more

10-Day Weather Forecast

Advertisements
Track Severe Weather on mobile